createdAt,value
2018-09-25T00:02:04.921Z,93.50
2018-09-25T00:04:38.683Z,93.50
2018-09-25T00:07:12.296Z,93.60
2018-09-25T00:09:46.701Z,93.70
2018-09-25T00:12:20.292Z,93.70
2018-09-25T00:14:53.857Z,93.90
2018-09-25T00:17:27.393Z,94.00
2018-09-25T00:20:00.988Z,94.00
2018-09-25T00:22:34.538Z,94.20
2018-09-25T00:25:08.157Z,94.20
2018-09-25T00:27:41.563Z,94.30
2018-09-25T00:30:15.184Z,94.20
2018-09-25T00:32:48.713Z,94.30
2018-09-25T00:35:22.329Z,94.40
2018-09-25T00:37:55.819Z,94.40
2018-09-25T00:40:29.539Z,94.50
2018-09-25T00:43:03.153Z,94.50
2018-09-25T00:45:36.691Z,94.60
2018-09-25T00:48:10.291Z,94.70
2018-09-25T00:50:44.039Z,94.60
2018-09-25T00:53:24.463Z,94.70
2018-09-25T00:55:59.133Z,94.80
2018-09-25T00:58:33.557Z,94.90
2018-09-25T01:01:07.210Z,94.90
2018-09-25T01:03:40.704Z,95.00
2018-09-25T01:06:14.447Z,94.90
2018-09-25T01:08:47.975Z,95.00
2018-09-25T01:11:21.477Z,95.00
2018-09-25T01:13:55.217Z,95.00
2018-09-25T01:16:28.682Z,95.00
2018-09-25T01:19:02.324Z,95.00
2018-09-25T01:21:36.086Z,95.10
2018-09-25T01:24:09.872Z,95.20
2018-09-25T01:26:43.469Z,95.30
2018-09-25T01:29:16.878Z,95.40
2018-09-25T01:31:50.506Z,95.50
2018-09-25T01:34:24.159Z,95.50
2018-09-25T01:36:57.878Z,95.40
2018-09-25T01:39:31.568Z,95.40
2018-09-25T01:42:05.158Z,95.50
2018-09-25T01:44:38.828Z,95.40
2018-09-25T01:47:12.837Z,95.50
2018-09-25T01:49:47.281Z,95.60
2018-09-25T01:52:20.977Z,95.70
2018-09-25T01:54:54.482Z,95.70
2018-09-25T01:57:28.263Z,95.70
2018-09-25T02:00:01.869Z,95.80
2018-09-25T02:02:35.521Z,95.80
2018-09-25T02:05:09.193Z,95.80
2018-09-25T02:07:42.697Z,95.90
2018-09-25T02:10:16.393Z,95.90
2018-09-25T02:12:54.875Z,96.00
2018-09-25T02:15:28.597Z,95.90
2018-09-25T02:18:02.205Z,95.90
2018-09-25T02:20:35.923Z,95.90
2018-09-25T02:23:09.416Z,95.90
2018-09-25T02:25:43.013Z,96.00
2018-09-25T02:28:16.644Z,96.10
2018-09-25T02:30:50.317Z,96.20
2018-09-25T02:33:23.799Z,96.00
2018-09-25T02:35:57.527Z,96.10
2018-09-25T02:38:31.104Z,96.10
2018-09-25T02:41:04.733Z,96.10
2018-09-25T02:43:38.277Z,96.20
2018-09-25T02:46:11.933Z,96.00
2018-09-25T02:48:45.665Z,96.10
2018-09-25T02:51:19.251Z,96.10
2018-09-25T02:53:52.851Z,96.00
2018-09-25T02:56:26.472Z,96.00
2018-09-25T02:59:00.075Z,96.10
2018-09-25T03:01:33.797Z,96.00
2018-09-25T03:04:07.470Z,96.10
2018-09-25T03:06:41.275Z,96.10
2018-09-25T03:09:15.005Z,96.00
2018-09-25T03:11:48.713Z,96.10
2018-09-25T03:14:22.285Z,96.10
2018-09-25T03:16:56.121Z,96.20
2018-09-25T03:19:29.642Z,96.30
2018-09-25T03:22:03.283Z,96.20
2018-09-25T03:24:37.116Z,96.20
2018-09-25T03:27:10.589Z,96.20
2018-09-25T03:29:44.245Z,96.30
2018-09-25T03:32:17.875Z,96.40
2018-09-25T03:34:51.609Z,96.40
2018-09-25T03:37:25.121Z,96.40
2018-09-25T03:40:00.013Z,96.50
2018-09-25T03:42:33.681Z,96.60
2018-09-25T03:45:07.181Z,96.50
2018-09-25T03:47:40.695Z,96.60
2018-09-25T03:50:14.603Z,96.60
2018-09-25T03:52:49.191Z,96.50
2018-09-25T03:55:22.789Z,96.60
2018-09-25T03:57:56.450Z,96.60
2018-09-25T04:00:32.998Z,96.60
2018-09-25T04:03:06.650Z,96.60
2018-09-25T04:05:40.257Z,96.70
2018-09-25T04:08:13.898Z,96.80
2018-09-25T04:10:47.560Z,96.80
2018-09-25T04:13:21.239Z,96.80
2018-09-25T04:15:54.804Z,96.80
2018-09-25T04:18:28.379Z,96.80
2018-09-25T04:21:02.086Z,96.80
2018-09-25T04:23:35.671Z,96.80
2018-09-25T04:26:09.274Z,96.90
2018-09-25T04:28:43.220Z,96.80
2018-09-25T04:31:17.658Z,97.00
2018-09-25T04:33:51.241Z,97.00
2018-09-25T04:36:25.102Z,97.10
2018-09-25T04:38:58.852Z,97.10
2018-09-25T04:41:32.581Z,97.10
2018-09-25T04:44:06.262Z,97.10
2018-09-25T04:46:39.941Z,97.20
2018-09-25T04:49:13.529Z,97.20
2018-09-25T04:51:47.288Z,97.30
2018-09-25T04:54:20.827Z,97.40
2018-09-25T04:56:54.370Z,97.30
2018-09-25T04:59:28.078Z,97.40
2018-09-25T05:02:01.633Z,97.40
2018-09-25T05:04:35.086Z,97.40
2018-09-25T05:07:08.692Z,97.50
2018-09-25T05:09:42.237Z,97.40
2018-09-25T05:12:15.957Z,97.40
2018-09-25T05:14:49.487Z,97.40
2018-09-25T05:17:24.259Z,97.30
2018-09-25T05:19:58.055Z,97.30
2018-09-25T05:22:31.731Z,97.20
2018-09-25T05:25:05.456Z,97.20
2018-09-25T05:27:39.222Z,97.20
2018-09-25T05:30:12.681Z,97.20
2018-09-25T05:32:46.339Z,97.20
2018-09-25T05:35:20.051Z,97.30
2018-09-25T05:37:53.635Z,97.20
2018-09-25T05:40:27.233Z,97.30
2018-09-25T05:43:00.859Z,97.10
2018-09-25T05:45:34.553Z,97.00
2018-09-25T05:48:08.349Z,97.10
2018-09-25T05:50:41.956Z,96.90
2018-09-25T05:53:15.545Z,96.80
2018-09-25T05:55:49.074Z,96.70
2018-09-25T05:58:23.469Z,96.70
2018-09-25T06:00:57.180Z,96.60
2018-09-25T06:03:30.751Z,96.60
2018-09-25T06:06:04.450Z,96.60
2018-09-25T06:08:38.106Z,96.40
2018-09-25T06:11:11.779Z,96.10
2018-09-25T06:13:45.432Z,95.70
2018-09-25T06:16:19.263Z,95.50
2018-09-25T06:18:52.997Z,95.20
2018-09-25T06:21:26.580Z,95.10
2018-09-25T06:24:00.300Z,94.80
2018-09-25T06:26:33.903Z,94.60
2018-09-25T06:29:07.657Z,94.20
2018-09-25T06:31:41.238Z,94.10
2018-09-25T06:34:14.804Z,94.10
2018-09-25T06:36:48.542Z,93.60
2018-09-25T06:39:22.342Z,93.50
2018-09-25T06:41:56.074Z,93.20
2018-09-25T06:44:29.852Z,93.30
2018-09-25T06:47:03.564Z,93.00
2018-09-25T06:49:37.162Z,92.90
2018-09-25T06:52:10.760Z,92.80
2018-09-25T06:54:44.596Z,92.80
2018-09-25T06:57:18.145Z,92.70
2018-09-25T06:59:51.672Z,92.80
2018-09-25T07:02:25.206Z,92.60
2018-09-25T07:04:58.802Z,92.40
2018-09-25T07:07:32.493Z,92.30
2018-09-25T07:10:06.330Z,92.00
2018-09-25T07:12:40.128Z,92.10
2018-09-25T07:15:13.699Z,92.20
2018-09-25T07:17:47.467Z,92.20
2018-09-25T07:20:21.077Z,92.10
2018-09-25T07:22:54.807Z,92.00
2018-09-25T07:25:28.427Z,92.00
2018-09-25T07:28:02.483Z,92.00
2018-09-25T07:30:36.167Z,92.10
2018-09-25T07:33:09.707Z,91.90
2018-09-25T07:35:43.247Z,92.00
2018-09-25T07:38:17.471Z,92.10
2018-09-25T07:40:51.609Z,92.10
2018-09-25T07:43:25.419Z,92.20
2018-09-25T07:45:59.110Z,92.20
2018-09-25T07:48:32.586Z,92.10
2018-09-25T07:51:06.287Z,91.80
2018-09-25T07:53:40.444Z,91.60
2018-09-25T07:56:14.099Z,91.60
2018-09-25T07:58:47.672Z,91.70
2018-09-25T08:01:21.480Z,91.70
2018-09-25T08:03:55.139Z,91.60
2018-09-25T08:06:28.909Z,91.70
2018-09-25T08:09:02.824Z,91.60
2018-09-25T08:11:36.428Z,91.70
2018-09-25T08:14:09.999Z,91.50
2018-09-25T08:16:43.581Z,90.80
2018-09-25T08:19:17.179Z,90.70
2018-09-25T08:21:50.847Z,90.60
2018-09-25T08:24:24.592Z,90.40
2018-09-25T08:26:58.219Z,90.70
2018-09-25T08:29:31.740Z,90.40
2018-09-25T08:32:05.250Z,90.30
2018-09-25T08:34:39.091Z,90.30
2018-09-25T08:37:12.762Z,89.60
2018-09-25T08:39:46.177Z,89.70
2018-09-25T08:42:22.939Z,89.80
2018-09-25T08:44:56.652Z,89.80
2018-09-25T08:47:30.175Z,89.20
2018-09-25T08:50:03.710Z,88.20
2018-09-25T08:52:37.439Z,88.40
2018-09-25T08:55:11.230Z,88.50
2018-09-25T08:57:44.820Z,88.50
2018-09-25T09:00:18.523Z,87.40
2018-09-25T09:02:52.145Z,87.10
2018-09-25T09:05:25.825Z,87.30
2018-09-25T09:07:59.390Z,87.10
2018-09-25T09:10:33.034Z,86.60
2018-09-25T09:13:06.436Z,86.30
2018-09-25T09:15:40.106Z,86.50
2018-09-25T09:18:14.267Z,85.70
2018-09-25T09:20:48.011Z,85.40
2018-09-25T09:23:21.677Z,84.90
2018-09-25T09:25:55.335Z,83.90
2018-09-25T09:28:28.917Z,83.90
2018-09-25T09:31:02.487Z,84.20
2018-09-25T09:33:36.055Z,83.10
2018-09-25T09:36:09.653Z,82.50
2018-09-25T09:38:43.289Z,81.50
2018-09-25T09:41:17.527Z,81.90
2018-09-25T09:43:50.967Z,81.60
2018-09-25T09:46:24.507Z,80.00
2018-09-25T09:48:58.107Z,79.20
2018-09-25T09:51:31.801Z,80.20
2018-09-25T09:54:05.475Z,80.00
2018-09-25T09:56:39.248Z,78.10
2018-09-25T09:59:12.939Z,77.60
2018-09-25T10:01:46.623Z,77.90
2018-09-25T10:04:20.139Z,77.30
2018-09-25T10:06:53.908Z,76.00
2018-09-25T10:09:27.428Z,75.80
2018-09-25T10:12:01.642Z,75.50
2018-09-25T10:14:35.383Z,73.90
2018-09-25T10:17:09.249Z,73.00
2018-09-25T10:19:43.417Z,72.50
2018-09-25T10:22:17.016Z,71.90
2018-09-25T10:24:50.571Z,70.90
2018-09-25T10:27:24.237Z,70.00
2018-09-25T10:29:57.898Z,69.00
2018-09-25T10:32:31.551Z,69.60
2018-09-25T10:35:05.371Z,70.40
2018-09-25T10:37:39.147Z,69.20
2018-09-25T10:40:12.993Z,70.00
2018-09-25T10:42:46.537Z,69.40
2018-09-25T10:45:20.139Z,69.10
2018-09-25T10:47:54.004Z,70.20
2018-09-25T10:50:27.630Z,70.00
2018-09-25T10:53:01.354Z,69.30
2018-09-25T10:55:34.805Z,69.10
2018-09-25T10:58:08.473Z,68.50
2018-09-25T11:00:42.039Z,69.70
2018-09-25T11:03:15.660Z,69.30
2018-09-25T11:05:49.134Z,68.60
2018-09-25T11:08:23.350Z,68.70
2018-09-25T11:10:57.068Z,69.40
2018-09-25T11:13:30.500Z,68.30
2018-09-25T11:16:04.048Z,67.70
2018-09-25T11:18:37.668Z,68.20
2018-09-25T11:21:12.302Z,68.70
2018-09-25T11:23:45.868Z,68.60
2018-09-25T11:26:19.377Z,66.80
2018-09-25T11:28:52.942Z,66.60
2018-09-25T11:31:27.452Z,65.30
2018-09-25T11:34:01.148Z,65.30
2018-09-25T11:36:35.812Z,65.40
2018-09-25T11:39:10.556Z,65.00
2018-09-25T11:41:44.358Z,64.40
2018-09-25T11:44:18.126Z,61.50
2018-09-25T11:46:51.977Z,61.60
2018-09-25T11:49:25.530Z,60.10
2018-09-25T11:51:59.239Z,59.30
2018-09-25T11:54:33.007Z,58.10
2018-09-25T11:57:06.725Z,59.10
2018-09-25T11:59:40.390Z,59.70
2018-09-25T12:02:14.156Z,59.60
2018-09-25T12:04:47.923Z,57.20
2018-09-25T12:07:21.385Z,56.20
2018-09-25T12:09:55.140Z,54.80
2018-09-25T12:12:28.653Z,53.70
2018-09-25T12:15:02.303Z,54.40
2018-09-25T12:17:35.939Z,54.50
2018-09-25T12:20:09.779Z,54.00
2018-09-25T12:22:43.560Z,54.60
2018-09-25T12:25:17.121Z,54.70
2018-09-25T12:27:50.719Z,53.50
2018-09-25T12:30:24.347Z,52.60
2018-09-25T12:32:58.117Z,53.10
2018-09-25T12:35:31.838Z,53.00
2018-09-25T12:38:06.452Z,53.80
2018-09-25T12:40:40.057Z,53.50
2018-09-25T12:43:13.517Z,54.10
2018-09-25T12:45:47.159Z,53.50
2018-09-25T12:48:20.820Z,53.90
2018-09-25T12:50:54.527Z,53.70
2018-09-25T12:53:35.157Z,53.20
2018-09-25T12:56:08.898Z,53.60
2018-09-25T12:58:42.735Z,53.10
2018-09-25T13:01:16.377Z,52.90
2018-09-25T13:03:50.197Z,53.40
2018-09-25T13:06:23.909Z,53.20
2018-09-25T13:08:57.513Z,51.60
2018-09-25T13:11:31.226Z,51.40
2018-09-25T13:14:04.943Z,51.40
2018-09-25T13:16:38.364Z,48.90
2018-09-25T13:19:12.147Z,48.80
2018-09-25T13:21:45.929Z,47.60
2018-09-25T13:24:19.474Z,48.60
2018-09-25T13:26:53.140Z,49.30
2018-09-25T13:29:26.696Z,49.20
2018-09-25T13:32:00.377Z,48.80
2018-09-25T13:34:34.009Z,49.50
2018-09-25T13:37:07.650Z,49.50
2018-09-25T13:39:41.246Z,47.80
2018-09-25T13:42:14.781Z,48.20
2018-09-25T13:44:48.340Z,48.70
2018-09-25T13:47:22.729Z,48.10
2018-09-25T13:49:56.444Z,47.60
2018-09-25T13:52:30.103Z,47.00
2018-09-25T13:55:03.792Z,47.10
2018-09-25T13:57:37.447Z,46.30
2018-09-25T14:00:11.075Z,46.00
2018-09-25T14:02:44.836Z,47.20
2018-09-25T14:05:18.539Z,47.20
2018-09-25T14:07:52.053Z,47.00
2018-09-25T14:10:25.697Z,46.30
2018-09-25T14:12:59.335Z,46.20
2018-09-25T14:15:33.006Z,45.30
2018-09-25T14:18:06.715Z,45.30
2018-09-25T14:20:40.417Z,45.80
2018-09-25T14:23:14.238Z,45.90
2018-09-25T14:25:48.833Z,46.60
2018-09-25T14:28:22.487Z,45.30
2018-09-25T14:30:56.188Z,45.80
2018-09-25T14:33:30.007Z,44.60
2018-09-25T14:36:03.755Z,45.80
2018-09-25T14:38:38.553Z,45.70
2018-09-25T14:41:12.191Z,45.10
2018-09-25T14:43:46.451Z,44.70
2018-09-25T14:46:20.257Z,44.20
2018-09-25T14:48:53.975Z,44.30
2018-09-25T14:51:27.764Z,45.40
2018-09-25T14:54:01.385Z,45.50
2018-09-25T14:56:34.905Z,45.90
2018-09-25T14:59:08.444Z,45.70
2018-09-25T15:01:43.452Z,46.20
2018-09-25T15:04:17.605Z,47.30
2018-09-25T15:06:52.919Z,48.00
2018-09-25T15:09:26.518Z,48.30
2018-09-25T15:12:00.111Z,47.80
2018-09-25T15:14:33.787Z,47.50
2018-09-25T15:17:07.541Z,47.20
2018-09-25T15:19:41.174Z,47.60
2018-09-25T15:22:15.090Z,48.40
2018-09-25T15:24:48.316Z,48.20
2018-09-25T15:27:22.095Z,47.60
2018-09-25T15:29:55.926Z,48.20
2018-09-25T15:32:29.526Z,47.90
2018-09-25T15:35:03.148Z,48.00
2018-09-25T15:37:36.767Z,47.80
2018-09-25T15:40:10.749Z,48.50
2018-09-25T15:42:44.269Z,48.50
2018-09-25T15:45:17.714Z,48.50
2018-09-25T15:47:51.452Z,48.40
2018-09-25T15:50:25.153Z,48.60
2018-09-25T15:52:58.867Z,49.00
2018-09-25T15:55:32.599Z,48.90
2018-09-25T15:58:06.327Z,49.10
2018-09-25T16:00:40.114Z,48.50
2018-09-25T16:03:13.723Z,48.70
2018-09-25T16:05:47.209Z,48.90
2018-09-25T16:08:20.891Z,49.10
2018-09-25T16:10:54.624Z,48.80
2018-09-25T16:13:29.271Z,48.60
2018-09-25T16:16:03.093Z,48.90
2018-09-25T16:18:36.716Z,49.20
2018-09-25T16:21:10.285Z,49.00
2018-09-25T16:23:43.838Z,49.40
2018-09-25T16:26:17.601Z,49.30
2018-09-25T16:28:51.175Z,49.60
2018-09-25T16:31:24.869Z,50.00
2018-09-25T16:33:58.541Z,49.90
2018-09-25T16:36:32.285Z,50.20
2018-09-25T16:39:05.991Z,50.70
2018-09-25T16:41:40.109Z,51.10
2018-09-25T16:44:13.741Z,51.00
2018-09-25T16:46:47.415Z,51.50
2018-09-25T16:49:21.177Z,50.50
2018-09-25T16:51:54.847Z,51.00
2018-09-25T16:54:28.342Z,51.10
2018-09-25T16:57:01.904Z,51.40
2018-09-25T16:59:35.516Z,52.10
2018-09-25T17:02:09.248Z,52.80
2018-09-25T17:04:42.989Z,52.90
2018-09-25T17:07:16.729Z,52.80
2018-09-25T17:09:50.269Z,52.90
2018-09-25T17:12:23.932Z,53.30
2018-09-25T17:14:58.311Z,53.50
2018-09-25T17:17:32.004Z,53.90
2018-09-25T17:20:05.722Z,54.60
2018-09-25T17:22:39.303Z,55.00
2018-09-25T17:25:14.011Z,55.50
2018-09-25T17:27:47.739Z,55.90
2018-09-25T17:30:21.417Z,56.50
2018-09-25T17:32:55.126Z,57.10
2018-09-25T17:35:28.664Z,57.50
2018-09-25T17:38:02.363Z,58.00
2018-09-25T17:40:35.997Z,58.40
2018-09-25T17:43:09.608Z,58.70
2018-09-25T17:45:43.065Z,59.50
2018-09-25T17:48:17.490Z,60.60
2018-09-25T17:50:50.933Z,60.50
2018-09-25T17:53:25.587Z,60.80
2018-09-25T17:55:59.134Z,61.40
2018-09-25T17:58:33.553Z,62.10
2018-09-25T18:01:07.196Z,62.60
2018-09-25T18:03:40.816Z,63.10
2018-09-25T18:06:14.380Z,64.20
2018-09-25T18:08:48.005Z,65.20
2018-09-25T18:11:21.574Z,64.50
2018-09-25T18:13:55.171Z,65.50
2018-09-25T18:16:28.856Z,66.00
2018-09-25T18:19:02.547Z,66.30
2018-09-25T18:21:36.240Z,66.60
2018-09-25T18:24:09.651Z,67.40
2018-09-25T18:26:43.315Z,68.20
2018-09-25T18:29:16.788Z,68.90
2018-09-25T18:31:50.478Z,69.00
2018-09-25T18:34:24.311Z,69.90
2018-09-25T18:36:57.929Z,70.30
2018-09-25T18:39:31.565Z,70.60
2018-09-25T18:42:05.101Z,71.10
2018-09-25T18:44:38.890Z,71.30
2018-09-25T18:47:12.599Z,70.90
2018-09-25T18:49:46.235Z,71.10
2018-09-25T18:52:19.877Z,71.40
2018-09-25T18:54:53.505Z,72.20
2018-09-25T18:57:27.241Z,72.30
2018-09-25T19:00:00.955Z,72.70
2018-09-25T19:02:34.590Z,74.50
2018-09-25T19:05:08.151Z,75.10
2018-09-25T19:07:41.645Z,75.50
2018-09-25T19:10:15.405Z,75.90
2018-09-25T19:12:49.008Z,76.50
2018-09-25T19:15:22.861Z,76.90
2018-09-25T19:17:56.460Z,77.50
2018-09-25T19:20:30.822Z,78.00
2018-09-25T19:23:04.401Z,78.40
2018-09-25T19:25:38.088Z,79.40
2018-09-25T19:28:11.745Z,79.00
2018-09-25T19:30:45.669Z,79.40
2018-09-25T19:33:19.644Z,79.90
2018-09-25T19:35:53.406Z,80.00
2018-09-25T19:38:26.973Z,80.70
2018-09-25T19:41:00.638Z,80.80
2018-09-25T19:43:34.368Z,81.20
2018-09-25T19:46:07.913Z,81.50
2018-09-25T19:48:41.654Z,81.90
2018-09-25T19:51:15.985Z,82.20
2018-09-25T19:53:49.688Z,82.60
2018-09-25T19:56:23.401Z,83.70
2018-09-25T19:58:57.149Z,83.30
2018-09-25T20:01:30.735Z,83.90
2018-09-25T20:04:04.444Z,84.30
2018-09-25T20:06:38.087Z,84.50
2018-09-25T20:09:13.806Z,85.00
2018-09-25T20:11:47.871Z,85.20
2018-09-25T20:14:21.690Z,85.40
2018-09-25T20:16:55.400Z,85.70
2018-09-25T20:19:29.184Z,85.80
2018-09-25T20:22:02.799Z,86.20
2018-09-25T20:24:36.442Z,86.90
2018-09-25T20:27:10.193Z,86.80
2018-09-25T20:29:43.968Z,87.10
2018-09-25T20:32:17.581Z,87.50
2018-09-25T20:34:51.290Z,87.90
2018-09-25T20:40:04.061Z,87.70
2018-09-25T20:42:37.676Z,88.40
2018-09-25T20:45:11.327Z,88.80
2018-09-25T20:47:44.947Z,88.80
2018-09-25T20:50:18.529Z,89.40
2018-09-25T20:52:52.233Z,89.40
2018-09-25T20:55:25.865Z,90.00
2018-09-25T20:57:59.383Z,90.10
2018-09-25T21:00:33.130Z,90.50
2018-09-25T21:03:06.913Z,90.30
2018-09-25T21:05:40.397Z,90.30
2018-09-25T21:08:14.200Z,90.50
2018-09-25T21:10:47.594Z,90.70
2018-09-25T21:13:21.101Z,90.80
2018-09-25T21:15:55.550Z,90.90
2018-09-25T21:18:29.358Z,91.00
2018-09-25T21:21:03.161Z,91.20
2018-09-25T21:23:36.862Z,91.20
2018-09-25T21:26:10.395Z,91.10
2018-09-25T21:28:44.225Z,91.20
2018-09-25T21:31:17.743Z,91.30
2018-09-25T21:33:51.268Z,91.40
2018-09-25T21:36:24.943Z,91.50
2018-09-25T21:38:58.472Z,91.60
2018-09-25T21:41:32.060Z,91.60
2018-09-25T21:44:05.749Z,91.60
2018-09-25T21:46:39.405Z,91.60
2018-09-25T21:49:12.880Z,91.50
2018-09-25T21:51:46.553Z,91.50
2018-09-25T21:54:20.101Z,91.50
2018-09-25T21:56:53.780Z,91.40
2018-09-25T21:59:27.427Z,91.50
2018-09-25T22:02:01.525Z,91.20
2018-09-25T22:04:35.124Z,91.30
2018-09-25T22:07:08.677Z,91.30
2018-09-25T22:09:42.494Z,91.40
2018-09-25T22:12:16.791Z,91.40
2018-09-25T22:14:50.370Z,91.30
2018-09-25T22:17:23.877Z,91.30
2018-09-25T22:19:57.767Z,91.20
2018-09-25T22:22:31.442Z,91.20
2018-09-25T22:25:05.315Z,91.30
2018-09-25T22:27:39.290Z,91.50
2018-09-25T22:30:13.051Z,91.70
2018-09-25T22:32:46.801Z,91.50
2018-09-25T22:35:20.229Z,91.50
2018-09-25T22:37:54.003Z,91.50
2018-09-25T22:40:27.767Z,91.50
2018-09-25T22:43:01.382Z,91.40
2018-09-25T22:45:34.876Z,91.30
2018-09-25T22:48:08.511Z,91.20
2018-09-25T22:50:42.126Z,91.20
2018-09-25T22:53:15.659Z,91.20
2018-09-25T22:55:49.242Z,91.20
2018-09-25T22:58:22.865Z,91.20
2018-09-25T23:00:56.319Z,91.30
2018-09-25T23:03:29.798Z,91.40
2018-09-25T23:06:03.541Z,91.50
2018-09-25T23:08:37.119Z,91.60
2018-09-25T23:11:10.991Z,91.50
2018-09-25T23:13:44.531Z,91.10
2018-09-25T23:16:18.170Z,91.10
2018-09-25T23:18:51.891Z,90.80
2018-09-25T23:21:25.322Z,91.10
2018-09-25T23:23:58.869Z,90.80
2018-09-25T23:26:33.234Z,90.80
2018-09-25T23:29:06.885Z,90.60
2018-09-25T23:31:40.491Z,90.50
2018-09-25T23:34:14.118Z,90.60
2018-09-25T23:36:47.956Z,90.50
2018-09-25T23:39:20.352Z,90.70
2018-09-25T23:41:52.911Z,90.80
2018-09-25T23:44:27.264Z,90.80
2018-09-25T23:47:00.880Z,90.90
2018-09-25T23:49:33.838Z,91.10
2018-09-25T23:52:39.964Z,91.30
2018-09-25T23:55:17.388Z,91.50
2018-09-25T23:57:51.077Z,91.50
